createdAt,value
2019-01-24T00:00:25.734Z,104.97
2019-01-24T00:03:05.386Z,95.63
2019-01-24T00:05:45.068Z,101.97
2019-01-24T00:08:24.328Z,101.37
2019-01-24T00:11:03.531Z,99.83
2019-01-24T00:13:44.123Z,92.70
2019-01-24T00:16:23.310Z,99.60
2019-01-24T00:19:02.575Z,95.23
2019-01-24T00:21:41.701Z,95.33
2019-01-24T00:24:20.879Z,96.93
2019-01-24T00:27:00.501Z,100.70
2019-01-24T00:29:39.665Z,86.53
2019-01-24T00:32:18.863Z,93.87
2019-01-24T00:34:58.134Z,95.67
2019-01-24T00:37:37.354Z,101.47
2019-01-24T00:40:22.355Z,104.70
2019-01-24T00:43:01.476Z,109.83
2019-01-24T00:45:41.079Z,95.90
2019-01-24T00:48:20.205Z,101.70
2019-01-24T00:50:59.328Z,103.33
2019-01-24T00:53:38.611Z,106.43
2019-01-24T00:56:17.900Z,106.13
2019-01-24T00:58:57.149Z,96.30
2019-01-24T01:01:36.266Z,101.83
2019-01-24T01:04:15.500Z,99.97
2019-01-24T01:06:54.574Z,103.63
2019-01-24T01:09:36.182Z,105.23
2019-01-24T01:12:15.390Z,104.07
2019-01-24T01:14:54.636Z,99.87
2019-01-24T01:17:33.780Z,104.13
2019-01-24T01:20:17.086Z,98.93
2019-01-24T01:22:57.420Z,109.47
2019-01-24T01:25:36.609Z,102.50
2019-01-24T01:28:15.698Z,91.70
2019-01-24T01:30:54.800Z,100.00
2019-01-24T01:33:34.109Z,88.13
2019-01-24T01:36:15.323Z,96.00
2019-01-24T01:38:54.509Z,90.33
2019-01-24T01:41:33.602Z,90.17
2019-01-24T01:44:12.855Z,90.10
2019-01-24T01:46:53.503Z,94.93
2019-01-24T01:49:32.600Z,101.07
2019-01-24T01:52:11.683Z,92.00
2019-01-24T01:54:51.214Z,92.53
2019-01-24T01:57:30.483Z,92.73
2019-01-24T02:00:14.877Z,96.37
2019-01-24T02:02:54.190Z,91.30
2019-01-24T02:05:36.107Z,89.07
2019-01-24T02:08:15.226Z,85.50
2019-01-24T02:10:54.409Z,90.93
2019-01-24T02:13:33.584Z,92.50
2019-01-24T02:16:12.771Z,91.77
2019-01-24T02:18:51.953Z,96.53
2019-01-24T02:21:31.814Z,94.37
2019-01-24T02:24:11.061Z,99.43
2019-01-24T02:26:52.744Z,91.17
2019-01-24T02:29:31.937Z,98.33
2019-01-24T02:32:14.527Z,85.80
2019-01-24T02:34:53.867Z,93.20
2019-01-24T02:37:35.103Z,103.17
2019-01-24T02:40:14.702Z,82.67
2019-01-24T02:42:53.917Z,85.10
2019-01-24T02:45:33.140Z,79.00
2019-01-24T02:48:12.290Z,79.00
2019-01-24T02:50:51.628Z,85.73
2019-01-24T02:53:30.726Z,87.37
2019-01-24T02:56:09.984Z,88.77
2019-01-24T02:58:49.111Z,94.80
2019-01-24T03:01:28.269Z,92.90
2019-01-24T03:04:07.573Z,90.90
2019-01-24T03:06:50.950Z,91.73
2019-01-24T03:09:30.389Z,95.97
2019-01-24T03:12:11.732Z,91.33
2019-01-24T03:14:50.898Z,96.70
2019-01-24T03:17:30.236Z,99.20
2019-01-24T03:20:10.018Z,89.00
2019-01-24T03:22:49.363Z,88.23
2019-01-24T03:25:28.531Z,78.80
2019-01-24T03:28:07.692Z,97.13
2019-01-24T03:30:46.904Z,96.97
2019-01-24T03:33:26.092Z,80.47
2019-01-24T03:36:05.428Z,89.93
2019-01-24T03:38:44.624Z,92.47
2019-01-24T03:41:23.930Z,92.73
2019-01-24T03:44:03.132Z,99.37
2019-01-24T03:46:42.332Z,89.30
2019-01-24T03:49:21.534Z,79.03
2019-01-24T03:52:00.848Z,83.47
2019-01-24T03:54:39.996Z,81.00
2019-01-24T03:57:19.192Z,85.03
2019-01-24T03:59:58.506Z,92.43
2019-01-24T04:02:37.787Z,90.93
2019-01-24T04:05:19.287Z,92.57
2019-01-24T04:07:58.557Z,85.53
2019-01-24T04:10:37.676Z,88.40
2019-01-24T04:13:16.770Z,97.77
2019-01-24T04:15:55.994Z,86.23
2019-01-24T04:18:35.204Z,95.63
2019-01-24T04:21:14.275Z,94.47
2019-01-24T04:23:53.560Z,86.00
2019-01-24T04:26:32.746Z,82.80
2019-01-24T04:29:11.814Z,87.93
2019-01-24T04:31:50.906Z,86.50
2019-01-24T04:34:30.260Z,87.87
2019-01-24T04:37:09.341Z,89.30
2019-01-24T04:39:50.711Z,86.43
2019-01-24T04:42:30.117Z,83.83
2019-01-24T04:45:13.370Z,88.30
2019-01-24T04:47:52.462Z,94.00
2019-01-24T04:50:31.566Z,87.07
2019-01-24T04:53:10.755Z,91.00
2019-01-24T04:55:50.062Z,86.37
2019-01-24T04:58:30.195Z,81.70
2019-01-24T05:01:12.706Z,92.77
2019-01-24T05:03:52.925Z,82.67
2019-01-24T05:06:32.000Z,93.97
2019-01-24T05:09:11.144Z,83.97
2019-01-24T05:11:50.246Z,89.20
2019-01-24T05:14:29.359Z,109.20
2019-01-24T05:17:08.474Z,97.33
2019-01-24T05:19:47.751Z,89.03
2019-01-24T05:22:26.831Z,86.63
2019-01-24T05:25:10.138Z,100.97
2019-01-24T05:27:49.255Z,96.43
2019-01-24T05:30:30.101Z,90.33
2019-01-24T05:33:09.181Z,93.83
2019-01-24T05:35:48.254Z,100.53
2019-01-24T05:38:27.388Z,118.40
2019-01-24T05:41:06.511Z,109.17
2019-01-24T05:43:45.633Z,107.73
2019-01-24T05:46:28.093Z,104.17
2019-01-24T05:49:07.167Z,87.10
2019-01-24T05:51:47.053Z,93.53
2019-01-24T05:54:26.416Z,88.53
2019-01-24T05:57:05.660Z,94.33
2019-01-24T05:59:44.751Z,88.83
2019-01-24T06:02:23.934Z,90.77
2019-01-24T06:05:03.085Z,97.97
2019-01-24T06:07:42.303Z,91.47
2019-01-24T06:10:21.498Z,103.23
2019-01-24T06:13:00.730Z,96.13
2019-01-24T06:15:39.968Z,95.43
2019-01-24T06:18:21.431Z,91.27
2019-01-24T06:21:00.592Z,87.40
2019-01-24T06:23:39.684Z,96.27
2019-01-24T06:26:18.781Z,93.37
2019-01-24T06:28:57.974Z,96.67
2019-01-24T06:31:37.184Z,98.40
2019-01-24T06:34:18.150Z,95.40
2019-01-24T06:36:57.213Z,95.60
2019-01-24T06:39:36.404Z,110.37
2019-01-24T06:42:15.712Z,104.23
2019-01-24T06:44:54.882Z,97.13
2019-01-24T06:47:34.068Z,92.57
2019-01-24T06:50:14.561Z,96.93
2019-01-24T06:52:53.733Z,91.70
2019-01-24T06:55:33.132Z,88.53
2019-01-24T06:58:12.451Z,92.53
2019-01-24T07:00:51.702Z,97.43
2019-01-24T07:03:30.831Z,94.50
2019-01-24T07:06:10.069Z,96.07
2019-01-24T07:08:50.401Z,89.67
2019-01-24T07:11:29.906Z,92.67
2019-01-24T07:14:10.641Z,97.53
2019-01-24T07:16:52.806Z,146.33
2019-01-24T07:19:31.902Z,140.93
2019-01-24T07:22:11.091Z,101.90
2019-01-24T07:24:50.276Z,102.60
2019-01-24T07:27:29.366Z,87.00
2019-01-24T07:30:11.755Z,97.37
2019-01-24T07:32:50.944Z,94.80
2019-01-24T07:35:33.537Z,94.47
2019-01-24T07:38:18.441Z,103.83
2019-01-24T07:41:01.213Z,101.47
2019-01-24T07:43:41.060Z,97.80
2019-01-24T07:46:20.221Z,96.90
2019-01-24T07:48:59.896Z,94.47
2019-01-24T07:51:40.726Z,93.43
2019-01-24T07:54:19.889Z,102.33
2019-01-24T07:57:00.711Z,87.20
2019-01-24T07:59:39.819Z,95.10
2019-01-24T08:02:19.124Z,102.37
2019-01-24T08:04:58.261Z,92.00
2019-01-24T08:07:37.411Z,93.80
2019-01-24T08:10:18.384Z,99.00
2019-01-24T08:12:57.513Z,105.80
2019-01-24T08:15:36.616Z,99.90
2019-01-24T08:18:15.673Z,95.23
2019-01-24T08:20:54.793Z,90.87
2019-01-24T08:23:34.094Z,93.50
2019-01-24T08:26:13.304Z,94.67
2019-01-24T08:28:52.396Z,99.67
2019-01-24T08:31:31.572Z,78.40
2019-01-24T08:34:10.693Z,77.40
2019-01-24T08:36:49.841Z,75.73
2019-01-24T08:39:29.033Z,72.93
2019-01-24T08:42:08.451Z,86.77
2019-01-24T08:44:47.562Z,72.60
2019-01-24T08:47:26.710Z,68.70
2019-01-24T08:50:10.342Z,70.67
2019-01-24T08:52:49.724Z,73.30
2019-01-24T08:55:41.331Z,81.97
2019-01-24T08:58:20.479Z,70.63
2019-01-24T09:00:59.650Z,73.83
2019-01-24T09:03:38.793Z,78.83
2019-01-24T09:06:22.487Z,68.67
2019-01-24T09:08:58.766Z,62.93
2019-01-24T09:11:38.103Z,61.43
2019-01-24T09:14:17.186Z,68.30
2019-01-24T09:16:56.242Z,63.47
2019-01-24T09:19:35.310Z,67.97
2019-01-24T09:22:14.371Z,64.43
2019-01-24T09:24:53.421Z,67.83
2019-01-24T09:27:32.628Z,60.47
2019-01-24T09:30:16.377Z,59.13
2019-01-24T09:32:55.488Z,54.30
2019-01-24T09:35:34.636Z,61.27
2019-01-24T09:38:13.720Z,51.03
2019-01-24T09:40:52.908Z,55.20
2019-01-24T09:43:32.019Z,56.23
2019-01-24T09:46:11.279Z,52.73
2019-01-24T09:48:51.761Z,56.60
2019-01-24T09:51:31.032Z,62.53
2019-01-24T09:54:10.214Z,62.17
2019-01-24T09:56:49.316Z,54.23
2019-01-24T09:59:28.529Z,51.10
2019-01-24T10:02:07.824Z,63.97
2019-01-24T10:04:46.976Z,54.30
2019-01-24T10:07:26.054Z,58.47
2019-01-24T10:10:09.351Z,54.77
2019-01-24T10:12:48.565Z,49.27
2019-01-24T10:15:27.979Z,50.70
2019-01-24T10:18:07.897Z,52.10
2019-01-24T10:20:47.523Z,45.17
2019-01-24T10:23:26.648Z,48.73
2019-01-24T10:26:05.908Z,46.87
2019-01-24T10:28:45.003Z,45.37
2019-01-24T10:31:24.062Z,44.83
2019-01-24T10:34:03.408Z,50.77
2019-01-24T10:36:43.290Z,44.93
2019-01-24T10:39:22.615Z,43.47
2019-01-24T10:42:01.820Z,36.67
2019-01-24T10:44:40.950Z,44.67
2019-01-24T10:47:19.992Z,40.70
2019-01-24T10:49:59.103Z,40.93
2019-01-24T10:52:38.342Z,41.33
2019-01-24T10:55:20.821Z,36.60
2019-01-24T10:58:02.787Z,37.97
2019-01-24T11:00:43.396Z,42.20
2019-01-24T11:03:22.636Z,42.43
2019-01-24T11:06:01.933Z,39.93
2019-01-24T11:08:41.065Z,42.33
2019-01-24T11:11:20.254Z,34.57
2019-01-24T11:13:59.406Z,38.20
2019-01-24T11:16:38.679Z,38.53
2019-01-24T11:19:17.904Z,35.47
2019-01-24T11:21:56.974Z,39.20
2019-01-24T11:24:36.011Z,46.67
2019-01-24T11:27:15.184Z,36.03
2019-01-24T11:29:54.287Z,42.50
2019-01-24T11:32:33.405Z,42.93
2019-01-24T11:35:14.949Z,36.80
2019-01-24T11:37:54.743Z,38.27
2019-01-24T11:40:33.935Z,41.93
2019-01-24T11:43:14.218Z,40.97
2019-01-24T11:45:53.465Z,39.10
2019-01-24T11:48:32.634Z,38.67
2019-01-24T11:51:11.733Z,40.90
2019-01-24T11:53:53.156Z,42.73
2019-01-24T11:56:31.613Z,44.33
2019-01-24T11:59:11.757Z,38.13
2019-01-24T12:01:50.915Z,39.07
2019-01-24T12:04:30.007Z,36.97
2019-01-24T12:07:11.290Z,44.60
2019-01-24T12:09:50.498Z,39.63
2019-01-24T12:12:29.635Z,49.47
2019-01-24T12:15:11.904Z,38.23
2019-01-24T12:17:52.248Z,41.97
2019-01-24T12:20:31.422Z,38.27
2019-01-24T12:23:10.538Z,41.43
2019-01-24T12:25:49.915Z,38.60
2019-01-24T12:28:29.051Z,37.87
2019-01-24T12:31:08.220Z,37.43
2019-01-24T12:33:47.430Z,35.60
2019-01-24T12:36:26.527Z,42.10
2019-01-24T12:39:10.486Z,40.60
2019-01-24T12:41:49.577Z,36.17
2019-01-24T12:44:28.659Z,36.67
2019-01-24T12:47:07.720Z,37.93
2019-01-24T12:49:58.585Z,42.23
2019-01-24T12:52:37.816Z,44.60
2019-01-24T12:55:17.583Z,41.77
2019-01-24T12:57:56.771Z,37.70
2019-01-24T13:00:41.179Z,37.93
2019-01-24T13:03:20.253Z,40.83
2019-01-24T13:05:59.388Z,38.40
2019-01-24T13:08:38.466Z,41.73
2019-01-24T13:11:17.828Z,39.47
2019-01-24T13:13:57.062Z,42.07
2019-01-24T13:16:36.246Z,38.63
2019-01-24T13:19:15.367Z,39.10
2019-01-24T13:21:54.424Z,39.23
2019-01-24T13:24:33.479Z,39.47
2019-01-24T13:27:12.560Z,32.97
2019-01-24T13:29:51.621Z,38.40
2019-01-24T13:32:30.771Z,37.20
2019-01-24T13:35:10.045Z,35.43
2019-01-24T13:37:49.380Z,37.23
2019-01-24T13:40:31.993Z,32.97
2019-01-24T13:43:11.042Z,37.53
2019-01-24T13:45:50.161Z,35.93
2019-01-24T13:48:29.249Z,32.97
2019-01-24T13:51:08.428Z,37.03
2019-01-24T13:53:47.475Z,40.13
2019-01-24T13:56:26.760Z,31.80
2019-01-24T13:59:06.061Z,39.77
2019-01-24T14:01:45.295Z,37.00
2019-01-24T14:04:37.366Z,36.60
2019-01-24T14:07:16.544Z,38.57
2019-01-24T14:09:55.709Z,43.43
2019-01-24T14:12:34.778Z,34.07
2019-01-24T14:15:15.698Z,37.20
2019-01-24T14:17:54.777Z,39.70
2019-01-24T14:20:34.011Z,38.53
2019-01-24T14:23:13.158Z,40.63
2019-01-24T14:25:52.375Z,42.03
2019-01-24T14:28:31.569Z,41.07
2019-01-24T14:31:11.770Z,35.93
2019-01-24T14:33:50.907Z,40.47
2019-01-24T14:36:31.711Z,35.60
2019-01-24T14:39:11.423Z,37.43
2019-01-24T14:41:50.592Z,44.77
2019-01-24T14:44:29.742Z,41.33
2019-01-24T14:47:11.413Z,36.37
2019-01-24T14:49:50.594Z,41.13
2019-01-24T14:52:31.122Z,40.23
2019-01-24T14:55:11.276Z,38.63
2019-01-24T14:57:50.954Z,41.97
2019-01-24T15:00:36.846Z,43.30
2019-01-24T15:03:16.571Z,46.87
2019-01-24T15:05:55.827Z,44.30
2019-01-24T15:08:35.115Z,46.03
2019-01-24T15:11:14.698Z,50.43
2019-01-24T15:13:54.429Z,45.67
2019-01-24T15:16:34.285Z,46.13
2019-01-24T15:19:13.593Z,53.20
2019-01-24T15:21:53.122Z,44.47
2019-01-24T15:24:32.461Z,47.50
2019-01-24T15:27:13.063Z,46.13
2019-01-24T15:29:52.361Z,45.53
2019-01-24T15:32:31.908Z,45.37
2019-01-24T15:35:11.335Z,44.30
2019-01-24T15:37:54.592Z,40.30
2019-01-24T15:40:35.360Z,45.90
2019-01-24T15:43:14.780Z,49.63
2019-01-24T15:45:54.237Z,49.10
2019-01-24T15:48:35.212Z,63.27
2019-01-24T15:51:26.301Z,45.73
2019-01-24T15:54:06.177Z,48.30
2019-01-24T15:56:45.653Z,51.43
2019-01-24T15:59:24.828Z,50.60
2019-01-24T16:02:03.945Z,57.00
2019-01-24T16:04:43.556Z,45.47
2019-01-24T16:07:22.892Z,54.47
2019-01-24T16:10:02.918Z,47.63
2019-01-24T16:12:42.188Z,53.33
2019-01-24T16:15:30.984Z,53.63
2019-01-24T16:18:11.819Z,78.00
2019-01-24T16:20:51.193Z,52.57
2019-01-24T16:23:31.201Z,57.43
2019-01-24T16:26:11.549Z,46.93
2019-01-24T16:28:50.774Z,50.90
2019-01-24T16:31:31.779Z,47.03
2019-01-24T16:34:11.574Z,53.40
2019-01-24T16:36:51.313Z,64.63
2019-01-24T16:39:31.170Z,51.60
2019-01-24T16:42:10.815Z,48.77
2019-01-24T16:44:51.257Z,44.33
2019-01-24T16:47:30.956Z,44.40
2019-01-24T16:50:11.651Z,93.07
2019-01-24T16:52:52.791Z,55.07
2019-01-24T16:55:35.178Z,68.43
2019-01-24T16:58:15.187Z,42.63
2019-01-24T17:01:04.603Z,44.03
2019-01-24T17:03:43.937Z,43.23
2019-01-24T17:06:24.267Z,44.90
2019-01-24T17:09:05.909Z,41.57
2019-01-24T17:11:45.315Z,38.37
2019-01-24T17:14:27.493Z,39.90
2019-01-24T17:17:06.890Z,40.83
2019-01-24T17:19:47.382Z,39.03
2019-01-24T17:22:29.286Z,48.47
2019-01-24T17:25:13.403Z,43.10
2019-01-24T17:27:54.598Z,54.50
2019-01-24T17:30:36.223Z,45.80
2019-01-24T17:33:19.850Z,45.90
2019-01-24T17:36:01.062Z,39.47
2019-01-24T17:38:40.635Z,35.93
2019-01-24T17:41:20.984Z,83.53
2019-01-24T17:44:03.327Z,42.73
2019-01-24T17:46:44.100Z,46.30
2019-01-24T17:49:28.049Z,52.57
2019-01-24T17:52:11.112Z,52.33
2019-01-24T17:54:52.494Z,50.53
2019-01-24T17:57:40.594Z,95.30
2019-01-24T18:00:29.654Z,68.67
2019-01-24T18:03:11.032Z,70.73
2019-01-24T18:05:50.601Z,51.70
2019-01-24T18:08:35.323Z,53.97
2019-01-24T18:11:15.285Z,47.87
2019-01-24T18:13:57.002Z,60.93
2019-01-24T18:16:37.296Z,44.73
2019-01-24T18:19:20.439Z,71.43
2019-01-24T18:22:00.817Z,53.23
2019-01-24T18:24:46.149Z,46.10
2019-01-24T18:27:28.551Z,54.50
2019-01-24T18:30:22.612Z,46.30
2019-01-24T18:33:07.322Z,48.80
2019-01-24T18:35:50.133Z,46.00
2019-01-24T18:38:38.611Z,44.67
2019-01-24T18:41:17.858Z,44.63
2019-01-24T18:43:58.963Z,50.07
2019-01-24T18:46:39.304Z,46.17
2019-01-24T18:49:20.960Z,43.33
2019-01-24T18:52:01.189Z,45.83
2019-01-24T18:54:43.096Z,46.13
2019-01-24T18:57:23.217Z,40.20
2019-01-24T19:00:04.465Z,43.97
2019-01-24T19:02:51.251Z,41.27
2019-01-24T19:05:34.122Z,50.07
2019-01-24T19:08:15.850Z,44.33
2019-01-24T19:10:56.636Z,43.60
2019-01-24T19:13:36.857Z,48.27
2019-01-24T19:16:16.861Z,44.87
2019-01-24T19:18:58.309Z,48.90
2019-01-24T19:21:39.590Z,43.47
2019-01-24T19:24:20.122Z,43.10
2019-01-24T19:27:00.669Z,49.60
2019-01-24T19:29:41.224Z,45.37
2019-01-24T19:32:21.532Z,46.50
2019-01-24T19:35:01.774Z,57.57
2019-01-24T19:37:42.154Z,48.77
2019-01-24T19:40:23.458Z,52.90
2019-01-24T19:43:04.887Z,50.07
2019-01-24T19:45:48.089Z,46.67
2019-01-24T19:48:31.209Z,61.17
2019-01-24T19:51:14.250Z,52.90
2019-01-24T19:53:56.493Z,53.43
2019-01-24T19:56:37.275Z,47.63
2019-01-24T19:59:17.362Z,49.30
2019-01-24T20:01:59.388Z,48.97
2019-01-24T20:04:41.453Z,51.50
2019-01-24T20:07:23.489Z,49.37
2019-01-24T20:10:05.547Z,49.60
2019-01-24T20:12:47.055Z,48.00
2019-01-24T20:15:30.519Z,49.20
2019-01-24T20:18:11.661Z,48.37
2019-01-24T20:20:51.767Z,45.33
2019-01-24T20:23:32.224Z,49.87
2019-01-24T20:26:12.847Z,51.33
2019-01-24T20:28:53.120Z,42.67
2019-01-24T20:31:33.300Z,47.83
2019-01-24T20:34:13.720Z,42.60
2019-01-24T20:36:54.102Z,51.23
2019-01-24T20:39:34.706Z,52.47
2019-01-24T20:42:15.041Z,51.23
2019-01-24T20:44:56.322Z,49.73
2019-01-24T20:47:36.981Z,46.63
2019-01-24T20:50:20.507Z,52.20
2019-01-24T20:53:12.753Z,49.23
2019-01-24T20:55:54.103Z,49.97
2019-01-24T20:58:33.931Z,50.37
2019-01-24T21:01:15.655Z,48.57
2019-01-24T21:03:59.286Z,49.87
2019-01-24T21:06:39.741Z,52.73
2019-01-24T21:09:20.674Z,48.43
2019-01-24T21:12:01.067Z,48.60
2019-01-24T21:14:44.081Z,50.73
2019-01-24T21:17:24.804Z,53.00
2019-01-24T21:20:06.303Z,48.23
2019-01-24T21:22:47.843Z,48.77
2019-01-24T21:25:30.445Z,52.83
2019-01-24T21:28:10.995Z,51.67
2019-01-24T21:31:01.203Z,47.13
2019-01-24T21:33:48.459Z,44.70
2019-01-24T21:36:28.205Z,47.03
2019-01-24T21:39:12.932Z,51.13
2019-01-24T21:41:54.564Z,54.23
2019-01-24T21:44:34.668Z,50.37
2019-01-24T21:47:14.279Z,48.07
2019-01-24T21:49:54.052Z,52.93
2019-01-24T21:52:35.077Z,49.60
2019-01-24T21:55:19.541Z,52.03
2019-01-24T21:57:59.408Z,49.83
2019-01-24T22:00:39.053Z,49.90
2019-01-24T22:03:18.521Z,53.20
2019-01-24T22:05:57.926Z,44.40
2019-01-24T22:08:37.359Z,45.83
2019-01-24T22:11:18.082Z,54.13
2019-01-24T22:13:57.379Z,54.13
2019-01-24T22:16:36.775Z,49.93
2019-01-24T22:19:16.038Z,47.37
2019-01-24T22:21:56.595Z,47.83
2019-01-24T22:24:35.702Z,50.93
2019-01-24T22:27:15.078Z,46.13
2019-01-24T22:29:54.316Z,46.90
2019-01-24T22:32:33.665Z,50.20
2019-01-24T22:35:13.155Z,47.40
2019-01-24T22:37:55.531Z,46.73
2019-01-24T22:40:34.665Z,48.37
2019-01-24T22:43:13.885Z,48.03
2019-01-24T22:45:53.284Z,44.23
2019-01-24T22:48:32.995Z,56.08
2019-01-24T22:51:12.262Z,55.10
2019-01-24T22:53:51.765Z,50.07
2019-01-24T22:56:35.425Z,51.83
2019-01-24T22:59:15.212Z,45.97
2019-01-24T23:02:05.768Z,46.33
2019-01-24T23:04:45.252Z,49.43
2019-01-24T23:07:24.681Z,48.27
2019-01-24T23:10:05.823Z,48.50
2019-01-24T23:12:45.040Z,50.53
2019-01-24T23:15:24.292Z,47.83
2019-01-24T23:18:05.508Z,47.37
2019-01-24T23:20:44.643Z,49.97
2019-01-24T23:23:25.080Z,46.80
2019-01-24T23:26:04.431Z,51.50
2019-01-24T23:28:43.644Z,50.43
2019-01-24T23:31:22.874Z,48.90
2019-01-24T23:34:02.233Z,48.73
2019-01-24T23:36:41.562Z,54.53
2019-01-24T23:39:22.259Z,56.33
2019-01-24T23:42:01.539Z,50.43
2019-01-24T23:44:40.665Z,51.83
2019-01-24T23:47:19.925Z,49.63
2019-01-24T23:49:59.239Z,51.33
2019-01-24T23:52:38.475Z,55.87
2019-01-24T23:55:17.746Z,51.37
2019-01-24T23:57:57.034Z,55.00
